Terminal Aerodrome Forecast
Issued by NWS

Home | Current Version | Previous Version | Text Only | Print | Product List | Glossary On
Versions: 1 2 3 4 5 6 7 8 9 10 11 12 13 14 15 16 17 18 19 20 21 22
000
FTUS46 KLOX 021739
TAFSBP
TAF
KSBP 021739Z 0218/0318 16003KT P6SM BKN035
     FM021900 VRB03KT P6SM SCT250
     FM022100 29010KT P6SM SCT250
     FM030400 VRB03KT P6SM BKN007=

USA.gov is the U.S. government's official web portal to all federal, state and local government web resources and services.